• Join FlightAware (Why Join?)
  • Login
  • US Flag 
03:34AM EDT


 

Airport Tracker/Info


-or-


 

Live Flight TrackerFlight Track Log ✈ AAL963 ✈ 25-Sep-2013 ✈ KDFW - SBGR / GRU

Flight Track Log - Related Links

Times and Time Zones

All times are in EDT time to prevent confusion due to time zone crossing. See the AAL963 flight status page for this flight to view local times or setup timezone preferences in your user account.

Time Position Orientation Groundspeed Altitude Reporting Facility
EDT Latitude Longitude Course Direction KTS MPH feet Rate Location/Type
09:04PM 32.8800 -97.0510 180° South 184 212 1,300  Level FlightAware
09:05PM 32.8620 -97.0510 180° South 182 209 2,200 1,800 Climbing FlightAware
09:05PM 32.8450 -97.0520 183° South 196 226 2,500 720 Climbing FlightAware
09:05PM 32.8260 -97.0520 180° South 215 247 2,700 660 Climbing FlightAware
09:06PM 32.8040 -97.0520 180° South 238 274 3,000 1,260 Climbing FlightAware
09:06PM 32.7750 -97.0530 182° South 248 285 3,700 1,980 Climbing FlightAware
09:06PM 32.7540 -97.0530 180° South 250 288 4,400 2,100 Climbing FlightAware
09:07PM 32.7280 -97.0540 182° South 253 291 5,100 1,980 Climbing FlightAware
09:07PM 32.7050 -97.0540 180° South 256 295 5,800 1,860 Climbing FlightAware
09:08PM 32.6710 -97.0520 177° South 265 305 6,600 1,800 Climbing FlightAware
09:08PM 32.6610 -97.0480 161° South 269 310 6,900 1,680 Climbing FlightAware
09:08PM 32.6380 -97.0350 155° Southeast 281 323 7,400 1,620 Climbing FlightAware
09:08PM 32.6140 -97.0210 154° Southeast 287 330 8,000 1,860 Climbing FlightAware
09:09PM 32.5870 -97.0030 151° Southeast 289 333 8,800 1,740 Climbing FlightAware
09:09PM 32.5630 -96.9880 152° Southeast 296 341 9,300 1,500 Climbing FlightAware
09:09PM 32.5380 -96.9720 152° Southeast 304 350 9,800 1,500 Climbing FlightAware
09:10PM 32.4920 -96.9430 152° Southeast 320 368 10,700 1,560 Climbing FlightAware
09:11PM 32.4490 -96.9170 153° Southeast 334 384 11,600 1,200 Climbing FlightAware
09:11PM 32.3890 -96.8800 152° Southeast 377 434 12,200 1,380 Climbing FlightAware
09:12PM 32.3280 -96.8430 153° Southeast 397 457 13,400 1,860 Climbing FlightAware
09:13PM 32.2650 -96.8090 155° Southeast 412 474 14,500 2,160 Climbing FlightAware
09:13PM 32.2000 -96.7840 162° South 414 476 16,000 2,460 Climbing FlightAware
09:14PM 32.1430 -96.7640 163° South 411 473 17,300 1,860 Climbing FlightAware
09:14PM 32.1015 -96.7477 162° South 424 488 17,700 1,500 Climbing FlightAware ADS-B
09:15PM 32.0433 -96.7244 161° South 433 498 18,600 2,040 Climbing FlightAware ADS-B
09:15PM 31.9747 -96.6978 162° South 433 498 20,000 2,040 Climbing FlightAware ADS-B
09:16PM 31.9158 -96.6753 162° South 439 505 20,900 1,860 Climbing FlightAware ADS-B
09:16PM 31.8571 -96.6529 162° South 446 513 21,900 1,920 Climbing FlightAware ADS-B
09:17PM 31.7941 -96.6267 161° South 448 516 22,900 1,680 Climbing FlightAware ADS-B
09:17PM 31.7331 -96.6013 160° South 457 526 23,700 1,440 Climbing FlightAware ADS-B
09:18PM 31.6716 -96.5760 161° South 464 534 24,400 1,440 Climbing FlightAware ADS-B
09:18PM 31.6019 -96.5476 161° South 473 544 25,300 1,500 Climbing FlightAware ADS-B
09:19PM 31.5377 -96.5216 161° South 481 554 26,000 1,440 Climbing FlightAware ADS-B
09:19PM 31.4725 -96.4959 161° South 485 558 26,800 1,500 Climbing FlightAware ADS-B
09:20PM 31.4045 -96.4709 163° South 491 565 27,600 1,440 Climbing FlightAware ADS-B
09:20PM 31.3384 -96.4466 163° South 497 572 28,300 1,260 Climbing FlightAware ADS-B
09:21PM 31.2708 -96.4214 162° South 503 579 28,900 1,260 Climbing FlightAware ADS-B
09:21PM 31.2126 -96.3991 162° South 510 587 29,500 1,260 Climbing FlightAware ADS-B
09:22PM 31.1801 -96.3823 156° South 514 592 29,800 1,740 Climbing FlightAware ADS-B
09:22PM 31.1472 -96.3595 149° Southeast 515 593 30,400 1,920 Climbing FlightAware ADS-B
09:22PM 31.1233 -96.3380 142° Southeast 515 593 30,700 1,620 Climbing FlightAware ADS-B
09:23PM 31.0714 -96.2791 136° Southeast 514 592 31,600 1,620 Climbing FlightAware ADS-B
09:23PM 31.0200 -96.2185 135° Southeast 513 590 32,400 1,320 Climbing FlightAware ADS-B
09:24PM 30.9691 -96.1580 134° Southeast 511 588 33,000 600 Climbing FlightAware ADS-B
09:24PM 30.9197 -96.0995 135° Southeast 505 581 33,000  Level FlightAware ADS-B
09:25PM 30.8694 -96.0401 135° Southeast 505 581 33,000  Level FlightAware ADS-B
09:25PM 30.8181 -95.9798 135° Southeast 506 582 33,000  Level FlightAware ADS-B
09:26PM 30.7687 -95.9220 135° Southeast 506 582 33,000  Level FlightAware ADS-B
09:26PM 30.7187 -95.8637 135° Southeast 506 582 33,000  Level FlightAware ADS-B
09:27PM 30.6682 -95.8049 135° Southeast 508 585 33,000  Level FlightAware ADS-B
09:27PM 30.6183 -95.7468 135° Southeast 509 586 33,000  Level FlightAware ADS-B
09:28PM 30.5662 -95.6864 135° Southeast 511 588 33,000  Level FlightAware ADS-B
09:28PM 30.5159 -95.6279 135° Southeast 511 588 33,000  Level FlightAware ADS-B
09:29PM 30.4649 -95.5687 135° Southeast 512 589 33,000  Level FlightAware ADS-B
09:29PM 30.4130 -95.5087 135° Southeast 511 588 33,000  Level FlightAware ADS-B
09:30PM 30.3573 -95.4443 135° Southeast 511 588 33,000  Level FlightAware ADS-B
09:30PM 30.3062 -95.3855 135° Southeast 511 588 33,000  Level FlightAware ADS-B
09:31PM 30.2551 -95.3266 135° Southeast 510 587 33,000  Level FlightAware ADS-B
09:31PM 30.2041 -95.2679 135° Southeast 510 587 33,000  Level FlightAware ADS-B
09:32PM 30.1540 -95.2105 135° Southeast 511 588 33,000  Level FlightAware ADS-B
09:32PM 30.1214 -95.1730 135° Southeast 511 588 33,000  Level FlightAware ADS-B
09:32PM 30.1013 -95.1501 135° Southeast 510 587 33,000  Level FlightAware ADS-B
09:33PM 30.0543 -95.0963 135° Southeast 509 586 33,000  Level FlightAware ADS-B
09:33PM 30.0509 -95.0924 135° Southeast 509 586 33,000  Level FlightAware ADS-B
09:33PM 30.0036 -95.0384 135° Southeast 509 586 33,000  Level FlightAware ADS-B
09:33PM 30.0006 -95.0349 135° Southeast 509 586 33,000  Level FlightAware ADS-B
09:34PM 29.9501 -94.9772 135° Southeast 509 586 33,000  Level FlightAware ADS-B
09:34PM 29.9384 -94.9639 135° Southeast 509 586 33,000  Level FlightAware ADS-B
09:34PM 29.8998 -94.9199 135° Southeast 508 585 33,000  Level FlightAware ADS-B
09:34PM 29.8948 -94.9142 135° Southeast 508 585 33,000  Level FlightAware ADS-B
09:35PM 29.8492 -94.8623 135° Southeast 508 585 33,000  Level FlightAware ADS-B
09:35PM 29.8386 -94.8503 135° Southeast 507 583 33,000  Level FlightAware ADS-B
09:35PM 29.7983 -94.8044 135° Southeast 507 583 33,000  Level FlightAware ADS-B
09:35PM 29.7849 -94.7892 135° Southeast 507 583 33,000  Level FlightAware ADS-B
09:36PM 29.7477 -94.7470 135° Southeast 506 582 33,000  Level FlightAware ADS-B
09:36PM 29.7354 -94.7331 136° Southeast 507 583 33,000  Level FlightAware ADS-B
09:36PM 29.6975 -94.6902 135° Southeast 506 582 33,000  Level FlightAware ADS-B
09:36PM 29.6875 -94.6789 136° Southeast 506 582 33,000  Level FlightAware ADS-B
09:37PM 29.6462 -94.6323 136° Southeast 506 582 33,000  Level FlightAware ADS-B
09:37PM 29.6360 -94.6208 135° Southeast 506 582 33,000  Level FlightAware ADS-B
09:37PM 29.5959 -94.5753 135° Southeast 506 582 33,000  Level FlightAware ADS-B
09:38PM 29.5717 -94.5480 136° Southeast 506 582 33,000  Level FlightAware ADS-B
09:38PM 29.5449 -94.5179 136° Southeast 506 582 33,000  Level FlightAware ADS-B
09:38PM 29.5043 -94.4721 136° Southeast 506 582 33,000  Level FlightAware ADS-B
09:38PM 29.4943 -94.4609 136° Southeast 506 582 33,000  Level FlightAware ADS-B
09:39PM 29.4517 -94.4130 136° Southeast 506 582 33,000  Level FlightAware ADS-B
09:39PM 29.4430 -94.4032 136° Southeast 505 581 33,000  Level FlightAware ADS-B
09:39PM 29.3926 -94.3467 136° Southeast 506 582 33,000  Level FlightAware ADS-B
09:39PM 29.3856 -94.3388 136° Southeast 505 581 33,000  Level FlightAware ADS-B
09:40PM 29.3422 -94.2905 136° Southeast 505 581 33,000  Level FlightAware ADS-B
09:40PM 29.3348 -94.2823 136° Southeast 505 581 33,000  Level FlightAware ADS-B
09:40PM 29.2912 -94.2338 136° Southeast 506 582 33,000  Level FlightAware ADS-B
09:41PM 29.2680 -94.2081 136° Southeast 506 582 33,000  Level FlightAware ADS-B
09:41PM 29.2400 -94.1770 136° Southeast 506 582 33,000  Level FlightAware ADS-B
09:41PM 29.2177 -94.1522 136° Southeast 506 582 33,000  Level FlightAware ADS-B
09:41PM 29.1892 -94.1207 136° Southeast 506 582 33,000  Level FlightAware ADS-B
09:42PM 29.1560 -94.0740 129° Southeast 504 580 33,000  Level FlightAware
09:43PM 29.1040 -94.0140 135° Southeast 504 580 33,000  Level FlightAware
09:43PM 28.9830 -93.8930 139° Southeast 508 585 33,000  Level FlightAware
09:44PM 28.9270 -93.8280 135° Southeast 508 585 33,000  Level FlightAware
09:45PM 28.8740 -93.7690 136° Southeast 508 585 33,000  Level FlightAware
09:45PM 28.8240 -93.7100 134° Southeast 508 585 33,000  Level FlightAware
09:46PM 28.7710 -93.6510 136° Southeast 508 585 33,000  Level FlightAware
09:47PM 28.7200 -93.5930 135° Southeast 508 585 33,000  Level FlightAware
09:47PM 28.6680 -93.5330 135° Southeast 508 585 33,000  Level FlightAware
09:48PM 28.6170 -93.4750 135° Southeast 508 585 33,000  Level FlightAware
09:48PM 28.5660 -93.4170 135° Southeast 508 585 33,000  Level FlightAware
09:49PM 28.5160 -93.3600 135° Southeast 508 585 33,000  Level FlightAware
09:50PM 28.4650 -93.3020 135° Southeast 508 585 33,000  Level FlightAware
09:50PM 28.4140 -93.2440 135° Southeast 508 585 33,000  Level FlightAware
09:51PM 28.3630 -93.1860 135° Southeast 508 585 33,000  Level FlightAware
09:51PM 28.3120 -93.1280 135° Southeast 508 585 33,000  Level FlightAware
09:52PM 28.2610 -93.0710 135° Southeast 508 585 33,000  Level FlightAware
09:53PM 28.2100 -93.0130 135° Southeast 508 585 33,000  Level FlightAware
09:53PM 28.1600 -92.9550 134° Southeast 508 585 33,000 -120 Level FlightAware
09:54PM 27.8914 -92.7083 134° Southeast 512 589 32,900  Descending Houston Center
09:55PM 27.7892 -92.5986 136° Southeast 509 586 33,000  Climbing Houston Center
09:56PM 27.6869 -92.4928 137° Southeast 502 578 33,000  Level Houston Center
09:57PM 27.5850 -92.3819 136° Southeast 506 582 33,000  Level Houston Center
09:58PM 27.4817 -92.2731 137° Southeast 509 586 33,000 -60 Level Houston Center
09:59PM 27.3800 -92.1650 137° Southeast 506 582 32,900 -60 Descending Houston Center
10:00PM 27.2775 -92.0575 137° Southeast 504 580 32,900  Level Houston Center
10:01PM 27.1742 -91.9508 137° Southeast 504 580 33,000  Climbing Houston Center
10:02PM 27.0603 -91.8572 144° Southeast 506 582 32,900  Descending Houston Center
10:03PM 26.9450 -91.7653 145° Southeast 508 585 33,000  Climbing Houston Center
10:04PM 26.8250 -91.6681 144° Southeast 507 583 33,000 -60 Level Houston Center
10:05PM 26.7114 -91.5769 144° Southeast 504 580 32,900  Descending Houston Center
10:07PM 26.5716 -91.4633 144° Southeast  Level FlightAware Approximate
10:14PM 25.8232 -90.8695 145° Southeast  Level FlightAware Approximate
10:15PM 25.7158 -90.7858 145° Southeast  Level FlightAware Approximate
10:16PM 25.6084 -90.7021 145° Southeast  Level FlightAware Approximate
10:17PM 25.5009 -90.6187 145° Southeast  Level FlightAware Approximate
10:18PM 25.3934 -90.5353 145° Southeast  Level FlightAware Approximate
10:19PM 25.2858 -90.4521 145° Southeast  Level FlightAware Approximate
10:20PM 25.1782 -90.3691 145° Southeast  Level FlightAware Approximate
10:21PM 25.0705 -90.2862 145° Southeast  Level FlightAware Approximate
10:22PM 24.9628 -90.2035 145° Southeast  Level FlightAware Approximate
10:23PM 24.8550 -90.1209 145° Southeast  Level FlightAware Approximate
10:24PM 24.7472 -90.0384 145° Southeast  Level FlightAware Approximate
10:25PM 24.6394 -89.9561 145° Southeast  Level FlightAware Approximate
10:26PM 24.5315 -89.8739 145° Southeast  Level FlightAware Approximate
10:26PM 24.4100 -89.7820 145° Southeast 33,000  Level FlightAware
10:26PM 24.3340 -89.7250 146° Southeast 492 566 33,000  Level FlightAware
10:27PM 24.2730 -89.6800 146° Southeast 492 566 33,000  Level FlightAware
10:28PM 24.2000 -89.6230 145° Southeast 493 567 33,000  Level FlightAware
10:28PM 24.0940 -89.5440 146° Southeast 493 567 33,000  Level FlightAware
10:29PM 24.0150 -89.4850 146° Southeast 493 567 33,000  Level FlightAware
10:30PM 23.9580 -89.4410 145° Southeast 493 567 33,000  Level FlightAware
10:31PM 23.8590 -89.3670 146° Southeast 492 566 33,000  Level FlightAware
10:31PM 23.7820 -89.3100 146° Southeast 491 565 33,000  Level FlightAware
10:32PM 23.6920 -89.2420 145° Southeast 491 565 33,000  Level FlightAware
10:33PM 23.6320 -89.1970 146° Southeast 492 566 33,000  Level FlightAware
10:33PM 23.5270 -89.1190 146° Southeast 491 565 33,000  Level FlightAware
10:34PM 23.4820 -89.0850 145° Southeast 491 565 33,000  Level FlightAware
10:34PM 23.4170 -89.0360 145° Southeast 490 564 33,000  Level FlightAware
10:35PM 23.3460 -88.9830 146° Southeast 490 564 33,000  Level FlightAware
10:36PM 23.2790 -88.9340 146° Southeast 490 564 33,000  Level FlightAware
10:36PM 23.2110 -88.8830 145° Southeast 490 564 33,000  Level FlightAware
10:37PM 23.0980 -88.7990 146° Southeast 492 566 33,000  Level FlightAware
10:38PM 23.0630 -88.7730 146° Southeast 491 565 33,000  Level FlightAware
10:38PM 22.9940 -88.7210 145° Southeast 492 566 33,000  Level FlightAware
10:39PM 22.9020 -88.6540 146° Southeast 492 566 33,000  Level FlightAware
10:40PM 22.8370 -88.6060 146° Southeast 494 568 33,000  Level FlightAware
10:40PM 22.7590 -88.5480 146° Southeast 495 570 33,000  Level FlightAware
10:41PM 22.6950 -88.5010 146° Southeast 495 570 33,000  Level FlightAware
10:41PM 22.5960 -88.4250 145° Southeast 496 571 33,000  Level FlightAware
10:42PM 22.5320 -88.3630 138° Southeast 497 572 33,000  Level FlightAware
10:43PM 22.4840 -88.3140 137° Southeast 496 571 33,000  Level FlightAware
10:43PM 22.4240 -88.2530 137° Southeast 495 570 33,000  Level FlightAware
10:44PM 22.3620 -88.1890 136° Southeast 495 570 33,000  Level FlightAware
10:45PM 22.3040 -88.1310 137° Southeast 495 570 33,000  Level FlightAware
10:45PM 22.2370 -88.0630 137° Southeast 495 570 33,000  Level FlightAware
10:46PM 22.1780 -88.0030 137° Southeast 497 572 33,000  Level FlightAware
10:46PM 22.1240 -87.9480 137° Southeast 498 573 33,000  Level FlightAware
10:47PM 22.0950 -87.9100 129° Southeast 500 575 33,000  Level FlightAware
10:47PM 22.0440 -87.8280 124° Southeast 500 575 33,000  Level FlightAware
10:48PM 22.0000 -87.7580 124° Southeast 500 575 33,000  Level FlightAware
10:48PM 21.9500 -87.6900 128° Southeast 500 575 33,000  Level FlightAware
10:49PM 21.8960 -87.6340 136° Southeast 498 573 33,000  Level FlightAware
10:49PM 21.8410 -87.5840 140° Southeast 493 567 33,000  Level FlightAware
10:50PM 21.7730 -87.5280 143° Southeast 495 570 33,000  Level FlightAware
10:51PM 21.7030 -87.4710 143° Southeast 493 567 33,000  Level FlightAware
10:51PM 21.6430 -87.4260 145° Southeast 492 566 33,000  Level FlightAware
10:52PM 21.5800 -87.3770 144° Southeast 494 568 33,000  Level FlightAware
10:52PM 21.5150 -87.3280 145° Southeast 492 566 33,000  Level FlightAware
10:53PM 21.4190 -87.2520 144° Southeast 491 565 33,000  Level FlightAware
10:54PM 21.3620 -87.1930 136° Southeast 490 564 33,000  Level FlightAware
10:54PM 21.3030 -87.1320 136° Southeast 489 563 33,000  Level FlightAware
10:55PM 21.2430 -87.0730 137° Southeast 489 563 33,000  Level FlightAware
10:55PM 21.1910 -87.0210 137° Southeast 490 564 33,000  Level FlightAware
10:56PM 21.1290 -86.9610 138° Southeast 490 564 33,000  Level FlightAware
10:57PM 21.0700 -86.9030 137° Southeast 490 564 33,000  Level FlightAware
10:57PM 21.0090 -86.8430 137° Southeast 491 565 33,000  Level FlightAware
10:58PM 20.9540 -86.7900 138° Southeast 491 565 33,000  Level FlightAware
10:58PM 20.8930 -86.7310 138° Southeast 492 566 33,000  Level FlightAware
10:59PM 20.8340 -86.6730 137° Southeast 491 565 33,000  Level FlightAware
11:00PM 20.7730 -86.6150 138° Southeast 491 565 33,000  Level FlightAware
11:00PM 20.7180 -86.5610 137° Southeast 489 563 33,000  Level FlightAware
11:01PM 20.6590 -86.5040 138° Southeast 490 564 33,000  Level FlightAware
11:01PM 20.5990 -86.4460 138° Southeast 490 564 33,000  Level FlightAware
11:02PM 20.5370 -86.3860 138° Southeast 490 564 33,000  Level FlightAware
11:03PM 20.4740 -86.3250 138° Southeast 489 563 33,000  Level FlightAware
11:03PM 20.4300 -86.2830 138° Southeast 489 563 33,000  Level FlightAware
11:04PM 20.3650 -86.2190 137° Southeast 489 563 33,000  Level FlightAware
11:05PM 20.2950 -86.1510 138° Southeast 489 563 33,000  Level FlightAware
11:05PM 20.2320 -86.0920 139° Southeast 489 563 33,000  Level FlightAware
11:06PM 20.1680 -86.0310 138° Southeast 489 563 33,000  Level FlightAware
11:06PM 20.0990 -85.9650 138° Southeast 491 565 33,000  Level FlightAware
11:07PM 20.0460 -85.9140 138° Southeast 490 564 33,000  Level FlightAware
11:07PM 19.9810 -85.8530 139° Southeast 490 564 33,000  Level FlightAware
11:08PM 19.9270 -85.8020 138° Southeast 491 565 33,000  Level FlightAware
11:09PM 19.8660 -85.7440 138° Southeast 490 564 33,000  Level FlightAware
11:09PM 19.8050 -85.6870 139° Southeast 490 564 33,000  Level FlightAware
11:10PM 19.7440 -85.6290 138° Southeast 488 562 33,000  Level FlightAware
11:10PM 19.6800 -85.5690 139° Southeast 488 562 33,000  Level FlightAware
11:11PM 19.6220 -85.5140 138° Southeast 488 562 33,000  Level FlightAware
11:12PM 19.5720 -85.4680 139° Southeast 488 562 33,000  Level FlightAware
11:12PM 19.5080 -85.4080 139° Southeast 487 560 33,000  Level FlightAware
11:13PM 19.4470 -85.3510 139° Southeast 488 562 33,000  Level FlightAware
11:13PM 19.3890 -85.2970 139° Southeast 488 562 33,000  Level FlightAware
11:14PM 19.3260 -85.2370 138° Southeast 488 562 33,000  Level FlightAware
11:15PM 19.2750 -85.1880 138° Southeast 488 562 33,000  Level FlightAware
11:15PM 19.2220 -85.1380 138° Southeast 488 562 33,000  Level FlightAware
11:16PM 19.1710 -85.0890 138° Southeast 488 562 33,000  Level FlightAware
11:16PM 19.1200 -85.0400 138° Southeast 488 562 33,000  Level FlightAware
11:17PM 19.0680 -84.9910 138° Southeast 488 562 33,000  Level FlightAware
11:18PM 19.0170 -84.9420 138° Southeast 488 562 33,000  Level FlightAware
11:18PM 18.9660 -84.8930 138° Southeast 488 562 33,000  Level FlightAware
11:19PM 18.9140 -84.8440 138° Southeast 488 562 33,000 1,620 Level FlightAware
11:19PM 18.7720 -84.7230 141° Southeast 491 565 35,000 1,620 Climbing FlightAware
11:20PM 18.7250 -84.6780 138° Southeast 491 565 35,000  Level FlightAware
11:21PM 18.6730 -84.6290 138° Southeast 491 565 35,000  Level FlightAware
11:21PM 18.6240 -84.5830 138° Southeast 491 565 35,000  Level FlightAware
11:22PM 18.5700 -84.5310 138° Southeast 491 565 35,000  Level FlightAware
11:22PM 18.5180 -84.4820 138° Southeast 491 565 35,000  Level FlightAware
11:23PM 18.4670 -84.4330 138° Southeast 491 565 35,000  Level FlightAware
11:24PM 18.4150 -84.3840 138° Southeast 491 565 35,000  Level FlightAware
11:24PM 18.3630 -84.3350 138° Southeast 491 565 35,000  Level FlightAware
11:25PM 18.3120 -84.2860 138° Southeast 491 565 35,000  Level FlightAware
11:25PM 18.2600 -84.2370 138° Southeast 491 565 35,000  Level FlightAware
11:26PM 18.2080 -84.1880 138° Southeast 491 565 35,000  Level FlightAware
11:27PM 18.1570 -84.1390 138° Southeast 491 565 35,000  Level FlightAware
11:27PM 18.1050 -84.0900 138° Southeast 491 565 35,000  Level FlightAware
11:28PM 18.0520 -84.0400 138° Southeast 491 565 35,000  Level FlightAware
11:28PM 18.0000 -83.9910 138° Southeast 491 565 35,000  Level FlightAware
11:29PM 17.9510 -83.9450 138° Southeast 491 565 35,000  Level FlightAware
11:32PM 17.7090 -83.7098 137° Southeast  Level Estimated
11:33PM 17.6127 -83.6165 137° Southeast  Level Estimated
11:34PM 17.5164 -83.5234 137° Southeast  Level Estimated
11:35PM 17.4201 -83.4303 137° Southeast  Level Estimated
11:36PM 17.3237 -83.3373 137° Southeast  Level Estimated
11:37PM 17.2273 -83.2444 137° Southeast  Level Estimated
11:38PM 17.1308 -83.1517 137° Southeast  Level Estimated
11:39PM 17.0343 -83.0590 137° Southeast  Level Estimated
11:40PM 16.9378 -82.9664 137° Southeast  Level Estimated
11:41PM 16.8412 -82.8739 137° Southeast  Level Estimated
11:42PM 16.7445 -82.7815 138° Southeast  Level Estimated
11:43PM 16.6479 -82.6892 138° Southeast  Level Estimated
11:44PM 16.5512 -82.5970 138° Southeast  Level Estimated
11:45PM 16.4544 -82.5048 138° Southeast  Level Estimated
11:46PM 16.3576 -82.4128 138° Southeast  Level Estimated
11:47PM 16.2608 -82.3209 138° Southeast  Level Estimated
11:48PM 16.1639 -82.2290 138° Southeast  Level Estimated
11:49PM 16.0670 -82.1373 138° Southeast  Level Estimated
11:50PM 15.9701 -82.0456 138° Southeast  Level Estimated
11:51PM 15.8731 -81.9540 138° Southeast  Level Estimated
11:52PM 15.7760 -81.8625 138° Southeast  Level Estimated
11:53PM 15.6790 -81.7711 138° Southeast  Level Estimated
11:54PM 15.5819 -81.6798 138° Southeast  Level Estimated
11:55PM 15.4847 -81.5886 138° Southeast  Level Estimated
11:56PM 15.3875 -81.4974 138° Southeast  Level Estimated
11:57PM 15.2903 -81.4064 138° Southeast  Level Estimated
11:58PM 15.1931 -81.3154 138° Southeast  Level Estimated
11:59PM 15.0958 -81.2245 138° Southeast  Level Estimated
12:00AM 14.9985 -81.1337 138° Southeast  Level Estimated
12:01AM 14.9011 -81.0430 138° Southeast  Level Estimated
12:02AM 14.8037 -80.9523 138° Southeast  Level Estimated
12:03AM 14.7063 -80.8617 138° Southeast  Level Estimated
12:04AM 14.6088 -80.7713 138° Southeast  Level Estimated
12:05AM 14.5113 -80.6809 138° Southeast  Level Estimated
12:06AM 14.4137 -80.5906 138° Southeast  Level Estimated
12:07AM 14.3162 -80.5003 138° Southeast  Level Estimated
12:08AM 14.2186 -80.4101 138° Southeast  Level Estimated
12:09AM 14.1209 -80.3201 138° Southeast  Level Estimated
12:10AM 14.0233 -80.2300 138° Southeast  Level Estimated
12:11AM 13.9256 -80.1401 138° Southeast  Level Estimated
12:12AM 13.8278 -80.0502 138° Southeast  Level Estimated
12:13AM 13.7300 -79.9605 138° Southeast  Level Estimated
12:14AM 13.6322 -79.8708 138° Southeast  Level Estimated
12:15AM 13.5344 -79.7811 138° Southeast  Level Estimated
12:16AM 13.4365 -79.6916 138° Southeast  Level Estimated
12:17AM 13.3386 -79.6021 138° Southeast  Level Estimated
12:18AM 13.2407 -79.5127 138° Southeast  Level Estimated
12:19AM 13.1429 -79.4235 138° Southeast  Level Estimated
12:20AM 13.0451 -79.3344 138° Southeast  Level Estimated
12:21AM 12.9472 -79.2453 138° Southeast  Level Estimated
12:22AM 12.8493 -79.1564 138° Southeast  Level Estimated
12:23AM 12.7514 -79.0675 138° Southeast  Level Estimated
12:24AM 12.6535 -78.9786 138° Southeast  Level Estimated
12:25AM 12.5555 -78.8898 139° Southeast  Level Estimated
12:26AM 12.4575 -78.8011 139° Southeast  Level Estimated
12:27AM 12.3595 -78.7125 139° Southeast  Level Estimated
12:28AM 12.2614 -78.6239 139° Southeast  Level Estimated
12:29AM 12.1634 -78.5355 139° Southeast  Level Estimated
12:30AM 12.0652 -78.4470 139° Southeast  Level Estimated
12:31AM 11.9671 -78.3586 139° Southeast  Level Estimated
12:32AM 11.8689 -78.2703 139° Southeast  Level Estimated
12:33AM 11.7707 -78.1821 139° Southeast  Level Estimated
12:34AM 11.6725 -78.0939 139° Southeast  Level Estimated
12:35AM 11.5742 -78.0058 139° Southeast  Level Estimated
12:36AM 11.4760 -77.9177 139° Southeast  Level Estimated
12:37AM 11.3777 -77.8297 139° Southeast  Level Estimated
12:38AM 11.2793 -77.7418 139° Southeast  Level Estimated
12:38AM 11.1440 -77.1630 139° Southeast 490 564 35,000  Level FlightAware
12:39AM 11.1810 -77.6539 139° Southeast  Level Estimated
12:39AM 11.1030 -77.0900 120° Southeast 489 563 35,000  Level FlightAware
12:40AM 11.0530 -77.0020 120° Southeast 490 564 35,000  Level FlightAware
12:40AM 11.0170 -76.9360 119° Southeast 491 565 35,000  Level FlightAware
12:41AM 10.9830 -76.8740 119° Southeast 491 565 35,000  Level FlightAware
12:42AM 10.9510 -76.8160 119° Southeast 491 565 35,000  Level FlightAware
12:42AM 10.9180 -76.7540 118° Southeast 491 565 35,000  Level FlightAware
12:43AM 10.8840 -76.6920 119° Southeast 491 565 35,000  Level FlightAware
12:43AM 10.8120 -76.5780 123° Southeast 35,000  Level FlightAware
12:44AM 10.7730 -76.5080 120° Southeast 488 562 35,000  Level FlightAware
12:44AM 10.7320 -76.4340 119° Southeast 488 562 35,000  Level FlightAware
12:45AM 10.7030 -76.3680 114° Southeast 491 565 35,000  Level FlightAware
12:46AM 10.6720 -76.2830 110° East 492 566 35,000  Level FlightAware
12:46AM 10.6450 -76.2070 110° East 492 566 35,000  Level FlightAware
12:47AM 10.6170 -76.1310 111° Southeast 493 567 35,000  Level FlightAware
12:47AM 10.5910 -76.0560 109° East 493 567 35,000  Level FlightAware
12:48AM 10.5660 -75.9780 108° East 491 565 35,000  Level FlightAware
12:49AM 10.5420 -75.9020 108° East 491 565 35,000  Level FlightAware
12:49AM 10.5170 -75.8240 108° East 489 563 35,000  Level FlightAware
12:50AM 10.4930 -75.7490 108° East 487 560 35,000  Level FlightAware
12:50AM 10.4650 -75.6750 111° Southeast 483 556 35,000  Level FlightAware
12:51AM 10.4260 -75.6050 120° Southeast 481 554 35,000  Level FlightAware
12:51AM 10.3840 -75.5370 122° Southeast 485 558 35,000  Level FlightAware
12:52AM 10.3450 -75.4720 121° Southeast 487 560 35,000  Level FlightAware
12:53AM 10.3020 -75.4030 122° Southeast 488 562 35,000  Level FlightAware
12:53AM 10.2600 -75.3350 122° Southeast 486 559 35,000  Level FlightAware
12:54AM 10.2230 -75.2770 123° Southeast 485 558 35,000  Level FlightAware
12:54AM 10.1810 -75.2110 123° Southeast 482 555 35,000  Level FlightAware
12:55AM 10.1330 -75.1330 122° Southeast 482 555 35,000  Level FlightAware
12:56AM 10.0810 -75.0600 126° Southeast 478 550 35,000  Level FlightAware
12:56AM 10.0410 -75.0270 141° Southeast 473 544 35,000  Level FlightAware
12:56AM 10.0110 -75.0110 152° Southeast 470 541 35,000  Level FlightAware
12:57AM 9.9570 -74.9920 161° South 469 540 35,000  Level FlightAware
12:58AM 9.8540 -74.9590 162° South 470 541 35,000  Level FlightAware
12:58AM 9.7850 -74.9390 164° South 471 542 35,000  Level FlightAware
12:59AM 9.7070 -74.9210 167° South 473 544 35,000  Level FlightAware
12:59AM 9.6310 -74.9040 168° South 473 544 35,000  Level FlightAware
01:00AM 9.5560 -74.8870 167° South 473 544 35,000  Level FlightAware
01:00AM 9.4820 -74.8710 168° South 474 545 35,000  Level FlightAware
01:01AM 9.4050 -74.8540 168° South 476 548 35,000  Level FlightAware
01:02AM 9.3290 -74.8370 168° South 477 549 35,000  Level FlightAware
01:02AM 9.2770 -74.8180 160° South 482 555 35,000  Level FlightAware
01:03AM 9.2090 -74.7780 150° Southeast 483 556 35,000  Level FlightAware
01:03AM 9.1370 -74.7350 149° Southeast 486 559 35,000  Level FlightAware
01:04AM 9.0700 -74.6900 146° Southeast 487 560 35,000  Level FlightAware
01:04AM 9.0000 -74.6430 146° Southeast 489 563 35,000  Level FlightAware
01:05AM 8.9460 -74.6060 146° Southeast 491 565 35,000  Level FlightAware
01:06AM 8.8660 -74.5370 140° Southeast 496 571 35,000  Level FlightAware
01:06AM 8.8070 -74.4800 136° Southeast 496 571 35,000  Level FlightAware
01:07AM 8.7590 -74.4350 137° Southeast 495 570 35,000  Level FlightAware
01:07AM 8.6900 -74.3700 137° Southeast 491 565 35,000  Level FlightAware
01:08AM 8.6320 -74.3150 137° Southeast 492 566 35,000  Level FlightAware
01:09AM 8.5730 -74.2590 137° Southeast 493 567 35,000  Level FlightAware
01:09AM 8.5250 -74.2100 135° Southeast 493 567 35,000  Level FlightAware
01:10AM 8.4440 -74.1280 135° Southeast 486 559 35,000  Level FlightAware
01:10AM 8.4120 -74.0860 128° Southeast 480 552 35,000  Level FlightAware
01:11AM 8.3610 -74.0000 121° Southeast 480 552 35,000  Level FlightAware
01:12AM 8.3090 -73.9110 121° Southeast 480 552 35,000  Level FlightAware
01:12AM 8.2710 -73.8460 121° Southeast 478 550 35,000  Level FlightAware
01:13AM 8.2140 -73.7470 120° Southeast 477 549 35,000  Level FlightAware
01:14AM 8.1830 -73.7170 136° Southeast 476 548 35,000  Level FlightAware
01:14AM 8.1160 -73.6400 131° Southeast 477 549 35,000  Level FlightAware
01:15AM 8.0700 -73.5880 132° Southeast 477 549 35,000  Level FlightAware
01:16AM 8.0250 -73.5370 132° Southeast 477 549 35,000  Level FlightAware
01:16AM 7.9800 -73.4870 132° Southeast 477 549 35,000  Level FlightAware
01:17AM 7.9340 -73.4360 132° Southeast 477 549 35,000  Level FlightAware
01:18AM 7.8890 -73.3850 132° Southeast 477 549 35,000  Level FlightAware
01:18AM 7.8450 -73.3360 132° Southeast 477 549 35,000  Level FlightAware
01:19AM 7.8000 -73.2850 132° Southeast 477 549 35,000  Level FlightAware
01:19AM 7.6410 -73.2720 175° South 35,000  Level FlightAware
01:20AM 7.4950 -73.1390 138° Southeast 35,000  Level FlightAware
01:21AM 7.4570 -73.0960 132° Southeast 475 547 35,000  Level FlightAware
01:22AM 7.3960 -73.0280 132° Southeast 475 547 35,000  Level FlightAware
01:22AM 7.3510 -72.9780 132° Southeast 475 547 35,000  Level FlightAware
01:23AM 7.3060 -72.9270 132° Southeast 475 547 35,000  Level FlightAware
01:24AM 7.2600 -72.8750 132° Southeast 475 547 35,000  Level FlightAware
01:24AM 7.2150 -72.8250 132° Southeast 475 547 35,000  Level FlightAware
01:25AM 7.1700 -72.7750 132° Southeast 475 547 35,000  Level FlightAware
01:25AM 7.1250 -72.7240 132° Southeast 475 547 35,000  Level FlightAware
01:26AM 7.0800 -72.6740 132° Southeast 475 547 35,000  Level FlightAware
01:26AM 7.0500 -72.6400 132° Southeast 475 547 35,000  Level FlightAware
01:27AM 7.0050 -72.5900 132° Southeast 475 547 35,000  Level FlightAware
01:28AM 6.9580 -72.5380 132° Southeast 475 547 35,000  Level FlightAware
01:28AM 6.9150 -72.4890 131° Southeast 475 547 35,000  Level FlightAware
01:29AM 6.8700 -72.4390 132° Southeast 475 547 35,000  Level FlightAware
01:29AM 6.8250 -72.3890 132° Southeast 475 547 35,000  Level FlightAware
01:30AM 6.7800 -72.3380 132° Southeast 475 547 35,000  Level FlightAware
01:31AM 6.7350 -72.2880 132° Southeast 475 547 35,000  Level FlightAware
01:33AM 6.5438 -72.1317 141° Southeast  Level Estimated
01:34AM 6.4423 -72.0487 141° Southeast  Level Estimated
01:35AM 6.3408 -71.9658 141° Southeast  Level Estimated
01:36AM 6.2392 -71.8829 141° Southeast  Level Estimated
01:37AM 6.1376 -71.8000 141° Southeast  Level Estimated
01:38AM 6.0360 -71.7172 141° Southeast  Level Estimated
01:39AM 5.9345 -71.6344 141° Southeast  Level Estimated
01:40AM 5.8328 -71.5516 141° Southeast  Level Estimated
01:41AM 5.7312 -71.4689 141° Southeast  Level Estimated
01:42AM 5.6296 -71.3861 141° Southeast  Level Estimated
01:43AM 5.5279 -71.3035 141° Southeast  Level Estimated
01:44AM 5.4263 -71.2208 141° Southeast  Level Estimated
01:45AM 5.3246 -71.1382 141° Southeast  Level Estimated
01:46AM 5.2230 -71.0556 141° Southeast  Level Estimated
01:47AM 5.1213 -70.9730 141° Southeast  Level Estimated
01:48AM 5.0196 -70.8905 141° Southeast  Level Estimated
01:49AM 4.9179 -70.8079 141° Southeast  Level Estimated
01:50AM 4.8162 -70.7254 141° Southeast  Level Estimated
01:51AM 4.7144 -70.6430 141° Southeast  Level Estimated
01:52AM 4.6139 -70.5615 141° Southeast  Level Estimated
01:53AM 4.5134 -70.4801 141° Southeast  Level Estimated
01:54AM 4.4129 -70.3987 141° Southeast  Level Estimated
01:55AM 4.3124 -70.3173 141° Southeast  Level Estimated
01:56AM 4.2118 -70.2360 141° Southeast  Level Estimated
01:57AM 4.1113 -70.1546 141° Southeast  Level Estimated
01:58AM 4.0107 -70.0733 141° Southeast  Level Estimated
01:59AM 3.9102 -69.9920 141° Southeast  Level Estimated
02:00AM 3.8096 -69.9107 141° Southeast  Level Estimated
02:01AM 3.7090 -69.8295 141° Southeast  Level Estimated
02:02AM 3.6084 -69.7482 141° Southeast  Level Estimated
02:03AM 3.5078 -69.6670 141° Southeast  Level Estimated
02:04AM 3.4072 -69.5858 141° Southeast  Level Estimated
02:05AM 3.3066 -69.5046 141° Southeast  Level Estimated
02:06AM 3.2060 -69.4234 141° Southeast  Level Estimated
02:07AM 3.1054 -69.3423 141° Southeast  Level Estimated
02:08AM 3.0048 -69.2611 141° Southeast  Level Estimated
02:09AM 2.9041 -69.1800 141° Southeast  Level Estimated
02:10AM 2.8035 -69.0989 141° Southeast  Level Estimated
02:11AM 2.7029 -69.0178 141° Southeast  Level Estimated
02:12AM 2.6022 -68.9367 141° Southeast  Level Estimated
02:13AM 2.5015 -68.8557 141° Southeast  Level Estimated
02:14AM 2.4009 -68.7746 141° Southeast  Level Estimated
02:15AM 2.3002 -68.6936 141° Southeast  Level Estimated
02:16AM 2.1996 -68.6125 141° Southeast  Level Estimated
02:17AM 2.0989 -68.5315 141° Southeast  Level Estimated
02:18AM 1.9982 -68.4505 141° Southeast  Level Estimated
02:19AM 1.8975 -68.3695 141° Southeast  Level Estimated
02:20AM 1.7968 -68.2885 141° Southeast  Level Estimated
02:21AM 1.6962 -68.2075 141° Southeast  Level Estimated
02:22AM 1.5955 -68.1265 141° Southeast  Level Estimated
02:23AM 1.4948 -68.0456 141° Southeast  Level Estimated
02:24AM 1.3941 -67.9646 141° Southeast  Level Estimated
02:25AM 1.2934 -67.8837 141° Southeast  Level Estimated
02:26AM 1.1927 -67.8027 141° Southeast  Level Estimated
02:27AM 1.0920 -67.7218 141° Southeast  Level Estimated
02:28AM 0.9912 -67.6408 141° Southeast  Level Estimated
02:29AM 0.8905 -67.5599 141° Southeast  Level Estimated
02:30AM 0.7898 -67.4790 141° Southeast  Level Estimated
02:31AM 0.6891 -67.3980 141° Southeast  Level Estimated
02:32AM 0.5884 -67.3171 141° Southeast  Level Estimated
02:33AM 0.4877 -67.2362 141° Southeast  Level Estimated
02:34AM 0.3870 -67.1553 141° Southeast  Level Estimated
02:35AM 0.2862 -67.0744 141° Southeast  Level Estimated
02:36AM 0.1855 -66.9935 141° Southeast  Level Estimated
02:37AM 0.0848 -66.9126 141° Southeast  Level Estimated
02:38AM -0.0159 -66.8317 141° Southeast  Level Estimated
02:39AM -0.1166 -66.7507 141° Southeast  Level Estimated
02:40AM -0.2174 -66.6698 141° Southeast  Level Estimated
02:41AM -0.3181 -66.5889 141° Southeast  Level Estimated
02:42AM -0.4188 -66.5080 141° Southeast  Level Estimated
02:43AM -0.5195 -66.4271 141° Southeast  Level Estimated
02:44AM -0.6202 -66.3462 141° Southeast  Level Estimated
02:45AM -0.7209 -66.2653 141° Southeast  Level Estimated
02:46AM -0.8217 -66.1843 141° Southeast  Level Estimated
02:47AM -0.9224 -66.1034 141° Southeast  Level Estimated
02:48AM -1.0231 -66.0225 141° Southeast  Level Estimated
02:49AM -1.1238 -65.9416 141° Southeast  Level Estimated
02:50AM -1.2245 -65.8606 141° Southeast  Level Estimated
02:51AM -1.3252 -65.7797 141° Southeast  Level Estimated
02:52AM -1.4259 -65.6987 141° Southeast  Level Estimated
02:53AM -1.5266 -65.6177 141° Southeast  Level Estimated
02:54AM -1.6273 -65.5368 141° Southeast  Level Estimated
02:55AM -1.7280 -65.4558 141° Southeast  Level Estimated
02:56AM -1.8286 -65.3748 141° Southeast  Level Estimated
02:57AM -1.9293 -65.2938 141° Southeast  Level Estimated
02:58AM -2.0300 -65.2128 141° Southeast  Level Estimated
02:59AM -2.1307 -65.1318 141° Southeast  Level Estimated
03:00AM -2.2314 -65.0507 141° Southeast  Level Estimated
03:01AM -2.3320 -64.9697 141° Southeast  Level Estimated
03:02AM -2.4327 -64.8886 141° Southeast  Level Estimated
03:03AM -2.5333 -64.8076 141° Southeast  Level Estimated
03:04AM -2.6340 -64.7265 141° Southeast  Level Estimated
03:05AM -2.7346 -64.6454 141° Southeast  Level Estimated
03:06AM -2.8353 -64.5643 141° Southeast  Level Estimated
03:07AM -2.9359 -64.4832 141° Southeast  Level Estimated
03:08AM -3.0366 -64.4021 141° Southeast  Level Estimated
03:09AM -3.1372 -64.3210 141° Southeast  Level Estimated
03:10AM -3.2378 -64.2398 141° Southeast  Level Estimated
03:11AM -3.3384 -64.1586 141° Southeast  Level Estimated
03:12AM -3.4390 -64.0774 141° Southeast  Level Estimated
03:13AM -3.5396 -63.9962 141° Southeast  Level Estimated
03:14AM -3.6402 -63.9150 141° Southeast  Level Estimated
03:15AM -3.7408 -63.8337 141° Southeast  Level Estimated
03:16AM -3.8414 -63.7525 141° Southeast  Level Estimated
03:17AM -3.9419 -63.6712 141° Southeast  Level Estimated
03:18AM -4.0425 -63.5899 141° Southeast  Level Estimated
03:19AM -4.1430 -63.5086 141° Southeast  Level Estimated
03:20AM -4.2436 -63.4272 141° Southeast  Level Estimated
03:21AM -4.3441 -63.3459 141° Southeast  Level Estimated
03:22AM -4.4447 -63.2645 141° Southeast  Level Estimated
03:23AM -4.5452 -63.1831 141° Southeast  Level Estimated
03:24AM -4.6457 -63.1016 141° Southeast  Level Estimated
03:25AM -4.7462 -63.0202 141° Southeast  Level Estimated
03:26AM -4.8467 -62.9387 141° Southeast  Level Estimated
03:27AM -4.9472 -62.8572 141° Southeast  Level Estimated
03:28AM -5.0476 -62.7757 141° Southeast  Level Estimated
03:29AM -5.1481 -62.6941 141° Southeast  Level Estimated
03:30AM -5.2485 -62.6125 141° Southeast  Level Estimated
03:31AM -5.3490 -62.5309 141° Southeast  Level Estimated
03:32AM -5.4494 -62.4493 141° Southeast  Level Estimated
03:33AM -5.5498 -62.3676 141° Southeast  Level Estimated
03:34AM -5.6502 -62.2859 141° Southeast  Level Estimated
03:35AM -5.7506 -62.2042 141° Southeast  Level Estimated
03:36AM -5.8510 -62.1225 141° Southeast  Level Estimated
03:37AM -5.9514 -62.0407 141° Southeast  Level Estimated
03:38AM -6.0517 -61.9589 141° Southeast  Level Estimated
03:39AM -6.1521 -61.8771 141° Southeast  Level Estimated
03:40AM -6.2524 -61.7952 141° Southeast  Level Estimated
03:41AM -6.3527 -61.7133 141° Southeast  Level Estimated
03:42AM -6.4530 -61.6314 141° Southeast  Level Estimated
03:43AM -6.5533 -61.5494 141° Southeast  Level Estimated
03:44AM -6.6536 -61.4674 141° Southeast  Level Estimated
03:45AM -6.7539 -61.3854 141° Southeast  Level Estimated
03:46AM -6.8541 -61.3033 141° Southeast  Level Estimated
03:47AM -6.9544 -61.2212 141° Southeast  Level Estimated
03:48AM -7.0546 -61.1391 141° Southeast  Level Estimated
03:49AM -7.1548 -61.0569 141° Southeast  Level Estimated
03:50AM -7.2550 -60.9747 141° Southeast  Level Estimated
03:51AM -7.3552 -60.8925 141° Southeast  Level Estimated
03:52AM -7.4554 -60.8102 141° Southeast  Level Estimated
03:53AM -7.5555 -60.7279 141° Southeast  Level Estimated
03:54AM -7.6557 -60.6456 141° Southeast  Level Estimated
03:55AM -7.7558 -60.5632 141° Southeast  Level Estimated
03:56AM -7.8559 -60.4807 141° Southeast  Level Estimated
03:57AM -7.9560 -60.3983 141° Southeast  Level Estimated
03:58AM -8.0561 -60.3158 141° Southeast  Level Estimated
03:59AM -8.1561 -60.2332 141° Southeast  Level Estimated
04:00AM -8.2562 -60.1506 141° Southeast  Level Estimated
04:01AM -8.3562 -60.0680 141° Southeast  Level Estimated
04:02AM -8.4562 -59.9853 141° Southeast  Level Estimated
04:03AM -8.5562 -59.9026 141° Southeast  Level Estimated
04:04AM -8.6561 -59.8198 141° Southeast  Level Estimated
04:05AM -8.7561 -59.7370 141° Southeast  Level Estimated
04:06AM -8.8560 -59.6542 141° Southeast  Level Estimated
04:07AM -8.9559 -59.5713 141° Southeast  Level Estimated
04:08AM -9.0559 -59.4883 141° Southeast  Level Estimated
04:09AM -9.1557 -59.4053 141° Southeast  Level Estimated
04:10AM -9.2556 -59.3223 141° Southeast  Level Estimated
04:11AM -9.3554 -59.2392 141° Southeast  Level Estimated
04:12AM -9.4552 -59.1561 141° Southeast  Level Estimated
04:13AM -9.5550 -59.0729 141° Southeast  Level Estimated
04:14AM -9.6548 -58.9897 141° Southeast  Level Estimated
04:15AM -9.7546 -58.9064 141° Southeast  Level Estimated
04:16AM -9.8543 -58.8231 141° Southeast  Level Estimated
04:17AM -9.9541 -58.7397 141° Southeast  Level Estimated
04:18AM -10.0538 -58.6563 141° Southeast  Level Estimated
04:19AM -10.1534 -58.5728 141° Southeast  Level Estimated
04:20AM -10.2531 -58.4893 140° Southeast  Level Estimated
04:21AM -10.3527 -58.4057 140° Southeast  Level Estimated
04:22AM -10.4523 -58.3220 140° Southeast  Level Estimated
04:23AM -10.5520 -58.2383 140° Southeast  Level Estimated
04:24AM -10.6515 -58.1546 140° Southeast  Level Estimated
04:25AM -10.7511 -58.0708 140° Southeast  Level Estimated
04:26AM -10.8506 -57.9870 140° Southeast  Level Estimated
04:27AM -10.9501 -57.9030 140° Southeast  Level Estimated
04:28AM -11.0496 -57.8191 140° Southeast  Level Estimated
04:29AM -11.1490 -57.7351 140° Southeast  Level Estimated
04:30AM -11.2485 -57.6510 140° Southeast  Level Estimated
04:31AM -11.3479 -57.5668 140° Southeast  Level Estimated
04:32AM -11.4473 -57.4826 140° Southeast  Level Estimated
04:33AM -11.5467 -57.3984 140° Southeast  Level Estimated
04:34AM -11.6460 -57.3141 140° Southeast  Level Estimated
04:35AM -11.7453 -57.2297 140° Southeast  Level Estimated
04:36AM -11.8446 -57.1452 140° Southeast  Level Estimated
04:37AM -11.9439 -57.0607 140° Southeast  Level Estimated
04:38AM -12.0431 -56.9762 140° Southeast  Level Estimated
04:39AM -12.1423 -56.8916 140° Southeast  Level Estimated
04:40AM -12.2415 -56.8069 140° Southeast  Level Estimated
04:41AM -12.3407 -56.7221 140° Southeast  Level Estimated
04:42AM -12.4398 -56.6373 140° Southeast  Level Estimated
04:43AM -12.5389 -56.5524 140° Southeast  Level Estimated
04:44AM -12.6380 -56.4675 140° Southeast  Level Estimated
04:45AM -12.7371 -56.3825 140° Southeast  Level Estimated
04:46AM -12.8361 -56.2974 140° Southeast  Level Estimated
04:47AM -12.9351 -56.2123 140° Southeast  Level Estimated
04:48AM -13.0341 -56.1270 140° Southeast  Level Estimated
04:49AM -13.1330 -56.0418 140° Southeast  Level Estimated
04:50AM -13.2320 -55.9564 140° Southeast  Level Estimated
04:51AM -13.3308 -55.8710 140° Southeast  Level Estimated
04:52AM -13.4297 -55.7855 140° Southeast  Level Estimated
04:53AM -13.5285 -55.7000 140° Southeast  Level Estimated
04:54AM -13.6273 -55.6143 140° Southeast  Level Estimated
04:55AM -13.7261 -55.5286 140° Southeast  Level Estimated
04:56AM -13.8249 -55.4428 140° Southeast  Level Estimated
04:57AM -13.9236 -55.3570 140° Southeast  Level Estimated
04:58AM -14.0223 -55.2711 140° Southeast  Level Estimated
04:59AM -14.1209 -55.1851 140° Southeast  Level Estimated
05:00AM -14.2196 -55.0990 140° Southeast  Level Estimated
05:01AM -14.3182 -55.0129 140° Southeast  Level Estimated
05:02AM -14.4167 -54.9267 140° Southeast  Level Estimated
05:03AM -14.5153 -54.8404 140° Southeast  Level Estimated
05:04AM -14.6138 -54.7540 140° Southeast  Level Estimated
05:05AM -14.7122 -54.6675 140° Southeast  Level Estimated
05:06AM -14.8107 -54.5810 140° Southeast  Level Estimated
05:07AM -14.9091 -54.4944 140° Southeast  Level Estimated
05:08AM -15.0074 -54.4077 140° Southeast  Level Estimated
05:09AM -15.1058 -54.3210 140° Southeast  Level Estimated
05:10AM -15.2041 -54.2341 140° Southeast  Level Estimated
05:11AM -15.3024 -54.1472 140° Southeast  Level Estimated
05:12AM -15.4006 -54.0602 140° Southeast  Level Estimated
05:13AM -15.4988 -53.9731 139° Southeast  Level Estimated
05:14AM -15.5970 -53.8859 139° Southeast  Level Estimated
05:15AM -15.6951 -53.7987 139° Southeast  Level Estimated
05:16AM -15.7932 -53.7113 139° Southeast  Level Estimated
05:17AM -15.8913 -53.6239 139° Southeast  Level Estimated
05:18AM -15.9893 -53.5364 139° Southeast  Level Estimated
05:19AM -16.0873 -53.4488 139° Southeast  Level Estimated
05:20AM -16.1853 -53.3611 139° Southeast  Level Estimated
05:21AM -16.2832 -53.2733 139° Southeast  Level Estimated
05:22AM -16.3811 -53.1855 139° Southeast  Level Estimated
05:23AM -16.4789 -53.0975 139° Southeast  Level Estimated
05:24AM -16.5767 -53.0095 139° Southeast  Level Estimated
05:25AM -16.6745 -52.9214 139° Southeast  Level Estimated
05:26AM -16.7723 -52.8332 139° Southeast  Level Estimated
05:27AM -16.8700 -52.7449 139° Southeast  Level Estimated
05:28AM -16.9676 -52.6565 139° Southeast  Level Estimated
05:29AM -17.0653 -52.5680 139° Southeast  Level Estimated
05:30AM -17.1628 -52.4794 139° Southeast  Level Estimated
05:31AM -17.2604 -52.3908 139° Southeast  Level Estimated
05:32AM -17.3579 -52.3020 139° Southeast  Level Estimated
05:33AM -17.4554 -52.2131 139° Southeast  Level Estimated
05:34AM -17.5528 -52.1242 139° Southeast  Level Estimated
05:35AM -17.6502 -52.0351 139° Southeast  Level Estimated
05:36AM -17.7475 -51.9460 139° Southeast  Level Estimated
05:37AM -17.8449 -51.8567 139° Southeast  Level Estimated
05:38AM -17.9421 -51.7674 139° Southeast  Level Estimated
05:39AM -18.0394 -51.6779 139° Southeast  Level Estimated
05:40AM -18.1366 -51.5884 139° Southeast  Level Estimated
05:41AM -18.2337 -51.4987 139° Southeast  Level Estimated
05:42AM -18.3308 -51.4090 139° Southeast  Level Estimated
05:43AM -18.4279 -51.3192 139° Southeast  Level Estimated
05:43AM -19.0470 -50.6190 139° Southeast 491 565 37,000  Level FlightAware
05:44AM -18.5247 -51.2294 139° Southeast  Level Estimated
05:44AM -19.1080 -50.5530 134° Southeast 491 565 37,000  Level FlightAware
05:44AM -19.1650 -50.4910 134° Southeast 492 566 37,000  Level FlightAware
05:45AM -19.2220 -50.4280 134° Southeast 492 566 37,000  Level FlightAware
05:45AM -19.2720 -50.3730 134° Southeast 492 566 37,000  Level FlightAware
05:46AM -19.3300 -50.3100 134° Southeast 494 568 37,000  Level FlightAware
05:47AM -19.3860 -50.2490 134° Southeast 494 568 37,000  Level FlightAware
05:47AM -19.4400 -50.1890 134° Southeast 494 568 37,000  Level FlightAware
05:48AM -19.4940 -50.1290 134° Southeast 495 570 37,000  Level FlightAware
05:48AM -19.5500 -50.0670 134° Southeast 495 570 37,000  Level FlightAware
05:49AM -19.6070 -50.0040 134° Southeast 493 567 37,000  Level FlightAware
05:50AM -19.6620 -49.9440 134° Southeast 492 566 37,000  Level FlightAware
05:50AM -19.7170 -49.8850 135° Southeast 493 567 37,000  Level FlightAware
05:51AM -19.7750 -49.8220 134° Southeast 494 568 37,000  Level FlightAware
05:51AM -19.8270 -49.7650 134° Southeast 494 568 37,000  Level FlightAware
05:52AM -19.8830 -49.7030 134° Southeast 495 570 37,000  Level FlightAware
05:52AM -19.9410 -49.6390 134° Southeast 495 570 37,000  Level FlightAware
05:53AM -19.9980 -49.5770 134° Southeast 497 572 37,000  Level FlightAware
05:54AM -20.0440 -49.5270 134° Southeast 497 572 37,000  Level FlightAware
05:54AM -20.1040 -49.4600 134° Southeast 497 572 37,000  Level FlightAware
05:55AM -20.1660 -49.3920 134° Southeast 497 572 37,000  Level FlightAware
05:55AM -20.2240 -49.3280 134° Southeast 497 572 37,000  Level FlightAware
05:56AM -20.2740 -49.2730 134° Southeast 497 572 37,000  Level FlightAware
05:56AM -20.3230 -49.2190 134° Southeast 498 573 37,000  Level FlightAware
05:57AM -20.3890 -49.1470 134° Southeast 498 573 37,000  Level FlightAware
05:58AM -20.4420 -49.0870 133° Southeast 498 573 37,000  Level FlightAware
05:58AM -20.4990 -49.0250 134° Southeast 497 572 37,000  Level FlightAware
05:59AM -20.5570 -48.9600 134° Southeast 496 571 37,000  Level FlightAware
05:59AM -20.6130 -48.8980 134° Southeast 496 571 37,000  Level FlightAware
06:00AM -20.6650 -48.8400 134° Southeast 496 571 37,000  Level FlightAware
06:01AM -20.7240 -48.7740 134° Southeast 495 570 37,000  Level FlightAware
06:01AM -20.7780 -48.7130 133° Southeast 496 571 37,000  Level FlightAware
06:02AM -20.8290 -48.6570 134° Southeast 495 570 37,000  Level FlightAware
06:02AM -20.8930 -48.5850 134° Southeast 495 570 37,000  Level FlightAware
06:03AM -20.9460 -48.5330 138° Southeast 490 564 37,000  Level FlightAware
06:03AM -21.0040 -48.4790 139° Southeast 487 560 37,000  Level FlightAware
06:04AM -21.0680 -48.4240 141° Southeast 487 560 37,000  Level FlightAware
06:05AM -21.1360 -48.3640 141° Southeast 487 560 37,000  Level FlightAware
06:05AM -21.1890 -48.3180 141° Southeast 487 560 37,000  Level FlightAware
06:06AM -21.2550 -48.2610 141° Southeast 486 559 37,000  Level FlightAware
06:07AM -21.3240 -48.2010 141° Southeast 486 559 37,000  Level FlightAware
06:07AM -21.3800 -48.1520 141° Southeast 486 559 37,000  Level FlightAware
06:08AM -21.4340 -48.1050 141° Southeast 486 559 37,000  Level FlightAware
06:08AM -21.5000 -48.0480 141° Southeast 488 562 37,000  Level FlightAware
06:09AM -21.5600 -47.9950 141° Southeast 487 560 37,000  Level FlightAware
06:09AM -21.6250 -47.9380 141° Southeast 488 562 37,000  Level FlightAware
06:10AM -21.6810 -47.8890 141° Southeast 486 559 37,000 -600 Level FlightAware
06:10AM -21.7380 -47.8390 141° Southeast 485 558 36,400 -1,500 Descending FlightAware
06:11AM -21.8040 -47.7820 141° Southeast 493 567 35,300 -1,800 Descending FlightAware
06:12AM -21.8630 -47.7290 140° Southeast 502 578 34,300 -1,680 Descending FlightAware
06:12AM -21.9310 -47.6700 141° Southeast 492 566 33,300 -1,860 Descending FlightAware
06:13AM -21.9910 -47.6160 140° Southeast 486 559 32,100 -2,220 Descending FlightAware
06:13AM -22.0540 -47.5610 141° Southeast 481 554 30,800 -2,160 Descending FlightAware
06:14AM -22.1140 -47.5090 141° Southeast 475 547 29,600 -2,040 Descending FlightAware
06:15AM -22.1700 -47.4590 140° Southeast 469 540 28,500 -2,040 Descending FlightAware
06:15AM -22.2290 -47.4070 141° Southeast 460 529 27,300 -2,040 Descending FlightAware
06:16AM -22.3010 -47.3430 141° Southeast 450 518 25,800 -1,980 Descending FlightAware
06:16AM -22.3530 -47.2970 141° Southeast 444 511 24,800 -1,980 Descending FlightAware
06:17AM -22.4100 -47.2460 140° Southeast 438 504 23,600 -1,920 Descending FlightAware
06:18AM -22.4660 -47.1970 141° Southeast 431 496 22,500 -1,860 Descending FlightAware
06:18AM -22.5200 -47.1480 140° Southeast 425 489 21,400 -1,860 Descending FlightAware
06:19AM -22.5700 -47.1070 143° Southeast 410 472 20,400 -1,800 Descending FlightAware
06:19AM -22.6330 -47.0740 154° Southeast 389 448 19,300 -1,740 Descending FlightAware
06:20AM -22.6860 -47.0520 159° South 380 437 18,400 -1,800 Descending FlightAware
06:21AM -22.7440 -47.0280 159° South 373 429 17,300 -1,680 Descending FlightAware
06:21AM -22.8010 -47.0040 159° South 370 426 16,400 -1,680 Descending FlightAware
06:22AM -22.8590 -46.9790 158° South 365 420 15,300 -1,860 Descending FlightAware
06:22AM -22.9110 -46.9580 160° South 363 418 14,300 -1,920 Descending FlightAware
06:23AM -22.9690 -46.9330 158° South 363 418 13,100 -2,160 Descending FlightAware
06:24AM -23.0250 -46.9090 158° South 343 395 11,700 -2,040 Descending FlightAware
06:24AM -23.0700 -46.8900 159° South 307 353 10,800 -1,500 Descending FlightAware
06:25AM -23.1120 -46.8730 160° South 276 318 10,000 -1,440 Descending FlightAware
06:25AM -23.1390 -46.8620 159° South 276 318 9,500 -1,320 Descending FlightAware
06:25AM -23.1590 -46.8530 158° South 277 319 9,200 -1,260 Descending FlightAware
06:26AM -23.1910 -46.8400 160° South 278 320 8,600 -1,320 Descending FlightAware
06:26AM -23.2160 -46.8290 158° South 277 319 8,200 -1,140 Descending FlightAware
06:26AM -23.2300 -46.8230 159° South 274 315 8,000 -840 Descending FlightAware
06:27AM -23.2580 -46.8110 159° South 267 307 7,700 -720 Descending FlightAware
06:27AM -23.2810 -46.8010 158° South 257 296 7,500 -600 Descending FlightAware
06:27AM -23.2940 -46.7960 161° South 250 288 7,400 -360 Descending FlightAware
06:28AM -23.3160 -46.7860 157° South 235 270 7,300 -420 Descending FlightAware
06:28AM -23.3400 -46.7760 159° South 223 257 7,100 -420 Descending FlightAware
06:28AM -23.3590 -46.7680 159° South 222 255 7,000 -480 Descending FlightAware
06:29AM -23.3770 -46.7580 153° Southeast 222 255 6,800 -900 Descending FlightAware
06:29AM -23.3940 -46.7430 141° Southeast 223 257 6,400 -1,080 Descending FlightAware
06:29AM -23.4090 -46.7290 139° Southeast 220 253 6,100 -960 Descending FlightAware
06:30AM -23.4270 -46.7110 137° Southeast 210 242 5,700 -960 Descending FlightAware
06:30AM -23.4400 -46.6990 140° Southeast 186 214 5,400 -900 Descending FlightAware
06:30AM -23.4450 -46.6930 132° Southeast 183 211 5,300 -720 Descending FlightAware
06:30AM -23.4500 -46.6860 128° Southeast 179 206 5,200 -360 Descending FlightAware
06:31AM -23.4600 -46.6650 117° Southeast 173 199 5,100 -660 Descending FlightAware
06:31AM -23.4670 -46.6480 114° Southeast 177 204 4,700 -1,080 Descending FlightAware
06:31AM -23.4710 -46.6380 114° Southeast 174 200 4,500 -660 Descending FlightAware
06:32AM -23.4750 -46.6260 110° East 171 197 4,400 -180 Descending FlightAware
06:32AM -23.4730 -46.6150 79° East 174 200 4,400 -360 Level FlightAware
06:32AM -23.4700 -46.6010 77° East 171 197 4,200 -660 Descending FlightAware
06:33AM -23.4650 -46.5830 73° East 158 182 4,000 -660 Descending FlightAware
06:33AM -23.4620 -46.5710 75° East 151 174 3,800 -840 Descending FlightAware
06:33AM -23.4580 -46.5570 73° East 149 171 3,500 -840 Descending FlightAware
06:33AM -23.4540 -46.5450 70° East 150 173 3,300 -780 Descending FlightAware
06:34AM -23.4500 -46.5300 74° East 150 173 3,000 -840 Descending FlightAware
06:34AM -23.4460 -46.5130 76° East 151 174 2,700 -960 Descending FlightAware
06:35AM -23.4380 -46.4830 74° East 150 173 2,100 -1,020 Descending FlightAware
06:35AM -23.4320 -46.4620 73° East 135 155 -3,600 Descending FlightAware